Terminal Aerodrome Forecast
Issued by NWS Pendleton, OR

Home | Current Version | Previous Version | Text Only | Print | Product List | Glossary On
Versions: 1 2 3 4 5 6 7 8 9 10 11 12 13
000
FTUS46 KPDT 120500
TAFPDT
TAF
KPDT 120520Z 1206/1306 VRB05KT P6SM FEW150 BKN200
     FM120900 14007KT P6SM SCT150 BKN250
     FM121600 VRB05KT P6SM FEW250
     FM122100 35008KT P6SM SCT250=

USA.gov is the U.S. government's official web portal to all federal, state and local government web resources and services.